KBFI

Boeing Field / King County International Airport

Seattle, Washington, USA
METAR KBFI 201353Z 21004KT 10SM BKN021 OVC027 14/10 A3018 RMK AO2 SLP219 T01390100
Observed Flight Rules
Jul-20 @ 13:53 UTC (48 minutes ago) Marginal Visual Flight Rules
Wind Visibility Clouds
210° at 4 knots 10 miles
  • Broken at 2,100' AGL
  • Overcast at 2,700' AGL
Temperatures Readings
Current 14°C / 57°F
Dewpoint 10°C / 50°F
Humidity 77%
Altimeter 30.18" Hg
Pressure 1021.9 hPa
Elevation 4
METAR KBFI 201353Z 21004KT 10SM BKN021 OVC027 14/10 A3018 RMK AO2 SLP219 T01390100
Observed Flight Rules
Jul-20 @ 13:53 UTC
(48 minutes ago)
MVFR
Wind Visibility
210° at 4 knots 10 miles
Clouds
  • Broken at 2,100' AGL
  • Overcast at 2,700' AGL
Temperature Dewpoint
14°C / 57°F 10°C / 50°F
Humidity Altimeter Pressure
77% 30.18" Hg 1021.9 hPa